createdAt,value
2023-05-02T00:00:36.583Z,32.15
2023-05-02T00:01:36.635Z,32.13
2023-05-02T00:02:36.785Z,32.13
2023-05-02T00:03:36.806Z,32.13
2023-05-02T00:04:36.838Z,32.13
2023-05-02T00:05:36.875Z,32.14
2023-05-02T00:06:36.975Z,32.12
2023-05-02T00:07:37.027Z,32.12
2023-05-02T00:08:37.044Z,32.12
2023-05-02T00:09:37.121Z,32.13
2023-05-02T00:10:37.179Z,32.13
2023-05-02T00:11:37.230Z,32.14
2023-05-02T00:12:37.296Z,32.14
2023-05-02T00:13:37.356Z,32.11
2023-05-02T00:14:37.407Z,32.14
2023-05-02T00:15:37.465Z,32.13
2023-05-02T00:16:37.546Z,32.13
2023-05-02T00:17:37.575Z,32.12
2023-05-02T00:18:37.605Z,32.12
2023-05-02T00:19:37.684Z,32.12
2023-05-02T00:20:37.654Z,32.11
2023-05-02T00:21:37.719Z,32.12
2023-05-02T00:22:37.773Z,32.12
2023-05-02T00:23:37.850Z,32.14
2023-05-02T00:24:37.869Z,32.14
2023-05-02T00:25:37.919Z,32.13
2023-05-02T00:26:38.031Z,32.11
2023-05-02T00:27:38.014Z,32.12
2023-05-02T00:28:38.079Z,32.11
2023-05-02T00:29:38.114Z,32.13
2023-05-02T00:30:38.191Z,32.12
2023-05-02T00:31:38.290Z,32.11
2023-05-02T00:32:38.289Z,32.12
2023-05-02T00:33:38.329Z,32.12
2023-05-02T00:34:38.384Z,32.11
2023-05-02T00:35:38.443Z,32.15
2023-05-02T00:36:38.500Z,32.12
2023-05-02T00:37:38.543Z,32.12
2023-05-02T00:38:38.617Z,32.11
2023-05-02T00:39:38.662Z,32.12
2023-05-02T00:40:38.712Z,32.11
2023-05-02T00:41:38.777Z,32.13
2023-05-02T00:42:38.815Z,32.13
2023-05-02T00:43:38.886Z,32.12
2023-05-02T00:44:38.944Z,32.13
2023-05-02T00:45:39.024Z,32.13
2023-05-02T00:46:39.151Z,32.12
2023-05-02T00:47:39.118Z,32.13
2023-05-02T00:48:39.181Z,32.13
2023-05-02T00:49:39.245Z,32.12
2023-05-02T00:50:39.297Z,32.14
2023-05-02T00:51:39.436Z,32.13
2023-05-02T00:52:39.416Z,32.13
2023-05-02T00:53:39.484Z,32.13
2023-05-02T00:54:39.550Z,32.12
2023-05-02T00:55:39.637Z,32.12
2023-05-02T00:56:39.622Z,32.13
2023-05-02T00:57:39.740Z,32.13
2023-05-02T00:58:39.731Z,32.13
2023-05-02T00:59:39.776Z,32.12
2023-05-02T01:00:39.819Z,32.11
2023-05-02T01:01:39.890Z,32.13
2023-05-02T01:02:39.936Z,32.11
2023-05-02T01:03:40.075Z,32.12
2023-05-02T01:04:39.987Z,32.13
2023-05-02T01:05:39.975Z,32.12
2023-05-02T01:06:40.075Z,32.11
2023-05-02T01:07:40.013Z,32.11
2023-05-02T01:08:40.135Z,32.11
2023-05-02T01:09:40.175Z,32.12
2023-05-02T01:10:40.144Z,32.12
2023-05-02T01:11:40.213Z,32.13
2023-05-02T01:12:40.274Z,32.13
2023-05-02T01:13:40.332Z,32.12
2023-05-02T01:14:40.603Z,32.10
2023-05-02T01:15:40.478Z,32.12
2023-05-02T01:16:40.650Z,32.12
2023-05-02T01:17:40.589Z,32.12
2023-05-02T01:18:40.612Z,32.12
2023-05-02T01:19:40.677Z,32.12
2023-05-02T01:20:41.596Z,32.11
2023-05-02T01:21:40.791Z,32.11
2023-05-02T01:22:40.850Z,32.12
2023-05-02T01:23:40.894Z,32.10
2023-05-02T01:24:40.959Z,32.10
2023-05-02T01:25:40.990Z,32.11
2023-05-02T01:26:41.082Z,32.12
2023-05-02T01:27:41.094Z,32.11
2023-05-02T01:28:41.149Z,32.12
2023-05-02T01:29:41.608Z,32.09
2023-05-02T01:30:41.264Z,32.12
2023-05-02T01:31:41.317Z,32.11
2023-05-02T01:32:41.406Z,32.12
2023-05-02T01:33:42.100Z,32.11
2023-05-02T01:34:41.383Z,32.11
2023-05-02T01:35:41.394Z,32.10
2023-05-02T01:36:41.398Z,32.12
2023-05-02T01:37:41.403Z,32.12
2023-05-02T01:38:41.406Z,32.09
2023-05-02T01:39:41.422Z,32.14
2023-05-02T01:40:41.467Z,32.14
2023-05-02T01:41:41.503Z,32.11
2023-05-02T01:42:41.529Z,32.12
2023-05-02T01:43:41.580Z,32.11
2023-05-02T01:44:41.624Z,32.13
2023-05-02T01:45:41.675Z,32.13
2023-05-02T01:46:41.758Z,32.10
2023-05-02T01:47:41.793Z,32.09
2023-05-02T01:48:41.839Z,32.10
2023-05-02T01:49:41.825Z,32.11
2023-05-02T01:50:41.849Z,32.10
2023-05-02T01:51:41.913Z,32.12
2023-05-02T01:52:41.943Z,32.10
2023-05-02T01:53:41.984Z,32.10
2023-05-02T01:54:42.004Z,32.09
2023-05-02T01:55:42.048Z,32.11
2023-05-02T01:56:42.068Z,32.11
2023-05-02T01:57:42.083Z,32.10
2023-05-02T01:58:42.111Z,32.10
2023-05-02T01:59:42.162Z,32.09
2023-05-02T02:00:42.270Z,32.12
2023-05-02T02:01:42.275Z,32.11
2023-05-02T02:02:42.266Z,32.13
2023-05-02T02:03:42.384Z,32.10
2023-05-02T02:04:42.405Z,32.13
2023-05-02T02:05:42.367Z,32.09
2023-05-02T02:06:42.507Z,32.11
2023-05-02T02:07:42.423Z,32.10
2023-05-02T02:08:42.451Z,32.10
2023-05-02T02:09:42.475Z,32.10
2023-05-02T02:10:42.508Z,32.11
2023-05-02T02:11:42.531Z,32.10
2023-05-02T02:12:42.542Z,32.11
2023-05-02T02:13:42.563Z,32.10
2023-05-02T02:14:42.604Z,32.12
2023-05-02T02:15:42.648Z,32.11
2023-05-02T02:16:42.759Z,32.09
2023-05-02T02:17:42.790Z,32.12
2023-05-02T02:18:42.787Z,32.11
2023-05-02T02:19:42.818Z,32.11
2023-05-02T02:20:42.861Z,32.11
2023-05-02T02:21:42.878Z,32.09
2023-05-02T02:22:42.927Z,32.11
2023-05-02T02:23:42.948Z,32.11
2023-05-02T02:24:42.998Z,32.12
2023-05-02T02:25:43.036Z,32.12
2023-05-02T02:26:43.079Z,32.11
2023-05-02T02:27:43.122Z,32.12
2023-05-02T02:28:43.260Z,32.11
2023-05-02T02:29:43.182Z,32.10
2023-05-02T02:30:43.207Z,32.11
2023-05-02T02:31:43.257Z,32.10
2023-05-02T02:32:43.269Z,32.11
2023-05-02T02:33:43.243Z,32.10
2023-05-02T02:34:43.270Z,32.11
2023-05-02T02:35:43.288Z,32.10
2023-05-02T02:36:43.298Z,32.10
2023-05-02T02:37:43.326Z,32.09
2023-05-02T02:38:43.361Z,32.12
2023-05-02T02:39:43.395Z,32.11
2023-05-02T02:40:43.429Z,32.10
2023-05-02T02:41:43.457Z,32.12
2023-05-02T02:42:43.503Z,32.13
2023-05-02T02:43:43.528Z,32.11
2023-05-02T02:44:43.553Z,32.11
2023-05-02T02:45:43.566Z,32.12
2023-05-02T02:46:43.660Z,32.12
2023-05-02T02:47:43.691Z,32.10
2023-05-02T02:48:43.653Z,32.14
2023-05-02T02:49:43.705Z,32.12
2023-05-02T02:50:43.717Z,32.11
2023-05-02T02:51:43.764Z,32.14
2023-05-02T02:52:43.704Z,32.10
2023-05-02T02:53:43.714Z,32.11
2023-05-02T02:54:43.743Z,32.10
2023-05-02T02:55:43.758Z,32.11
2023-05-02T02:56:43.783Z,32.13
2023-05-02T02:57:43.793Z,32.11
2023-05-02T02:58:43.857Z,32.11
2023-05-02T02:59:44.140Z,32.12
2023-05-02T03:00:43.786Z,32.12
2023-05-02T03:01:43.835Z,32.14
2023-05-02T03:02:43.862Z,32.14
2023-05-02T03:03:43.826Z,32.12
2023-05-02T03:04:43.777Z,32.14
2023-05-02T03:05:43.805Z,32.11
2023-05-02T03:06:43.818Z,32.11
2023-05-02T03:07:43.808Z,32.11
2023-05-02T03:08:43.842Z,32.11
2023-05-02T03:09:43.869Z,32.10
2023-05-02T03:10:43.898Z,32.08
2023-05-02T03:11:43.931Z,32.07
2023-05-02T03:12:43.974Z,32.08
2023-05-02T03:13:44.014Z,32.04
2023-05-02T03:14:44.061Z,32.05
2023-05-02T03:15:44.125Z,32.01
2023-05-02T03:16:44.261Z,32.03
2023-05-02T03:17:44.380Z,32.02
2023-05-02T03:18:44.300Z,32.00
2023-05-02T03:19:44.367Z,31.97
2023-05-02T03:20:45.142Z,31.96
2023-05-02T03:21:44.482Z,31.95
2023-05-02T03:22:44.534Z,31.94
2023-05-02T03:23:45.155Z,31.92
2023-05-02T03:24:44.659Z,31.91
2023-05-02T03:25:44.704Z,31.89
2023-05-02T03:26:44.763Z,31.89
2023-05-02T03:27:44.855Z,31.86
2023-05-02T03:28:44.928Z,31.86
2023-05-02T03:29:44.912Z,31.84
2023-05-02T03:30:44.959Z,31.82
2023-05-02T03:31:45.186Z,31.80
2023-05-02T03:32:45.085Z,31.79
2023-05-02T03:33:45.120Z,31.79
2023-05-02T03:34:45.179Z,31.78
2023-05-02T03:35:45.216Z,31.77
2023-05-02T03:36:45.289Z,31.74
2023-05-02T03:37:45.395Z,31.74
2023-05-02T03:38:45.359Z,31.74
2023-05-02T03:39:45.415Z,31.73
2023-05-02T03:40:45.456Z,31.71
2023-05-02T03:41:45.495Z,31.71
2023-05-02T03:42:45.533Z,31.72
2023-05-02T03:43:45.592Z,31.70
2023-05-02T03:44:45.620Z,31.69
2023-05-02T03:45:47.049Z,31.71
2023-05-02T03:46:45.717Z,31.67
2023-05-02T03:47:45.799Z,31.67
2023-05-02T03:48:45.644Z,31.66
2023-05-02T03:49:45.643Z,31.66
2023-05-02T03:50:45.628Z,31.67
2023-05-02T03:51:45.641Z,31.66
2023-05-02T03:52:45.619Z,31.65
2023-05-02T03:53:45.603Z,31.65
2023-05-02T03:54:45.604Z,31.66
2023-05-02T03:55:45.608Z,31.63
2023-05-02T03:56:45.585Z,31.65
2023-05-02T03:57:45.570Z,31.66
2023-05-02T03:58:45.574Z,31.66
2023-05-02T03:59:45.562Z,31.61
2023-05-02T04:00:45.563Z,31.63
2023-05-02T04:01:45.593Z,31.62
2023-05-02T04:02:45.664Z,31.62
2023-05-02T04:03:46.214Z,31.62
2023-05-02T04:04:45.564Z,31.64
2023-05-02T04:05:45.549Z,31.61
2023-05-02T04:06:45.596Z,31.62
2023-05-02T04:07:45.512Z,31.61
2023-05-02T04:08:45.512Z,31.61
2023-05-02T04:09:45.508Z,31.61
2023-05-02T04:10:45.496Z,31.62
2023-05-02T04:11:45.487Z,31.62
2023-05-02T04:12:45.468Z,31.61
2023-05-02T04:13:45.476Z,31.61
2023-05-02T04:14:45.463Z,31.61
2023-05-02T04:15:45.476Z,31.62
2023-05-02T04:16:46.235Z,31.61
2023-05-02T04:17:45.503Z,31.61
2023-05-02T04:18:45.440Z,31.62
2023-05-02T04:19:45.432Z,31.64
2023-05-02T04:20:45.427Z,31.61
2023-05-02T04:21:45.413Z,31.64
2023-05-02T04:22:45.400Z,31.61
2023-05-02T04:23:45.460Z,31.60
2023-05-02T04:24:45.469Z,31.61
2023-05-02T04:25:45.375Z,31.65
2023-05-02T04:26:45.383Z,31.62
2023-05-02T04:27:45.385Z,31.61
2023-05-02T04:28:45.364Z,31.62
2023-05-02T04:29:45.369Z,31.62
2023-05-02T04:30:45.497Z,31.64
2023-05-02T04:31:45.359Z,31.62
2023-05-02T04:32:45.405Z,31.61
2023-05-02T04:33:45.343Z,31.61
2023-05-02T04:34:45.346Z,31.61
2023-05-02T04:35:45.433Z,31.62
2023-05-02T04:36:45.449Z,31.60
2023-05-02T04:37:45.485Z,31.59
2023-05-02T04:38:45.525Z,31.61
2023-05-02T04:39:45.575Z,31.61
2023-05-02T04:40:45.609Z,31.61
2023-05-02T04:41:45.659Z,31.59
2023-05-02T04:42:45.683Z,31.60
2023-05-02T04:43:45.721Z,31.59
2023-05-02T04:44:45.775Z,31.61
2023-05-02T04:45:45.808Z,31.60
2023-05-02T04:46:46.014Z,31.60
2023-05-02T04:47:46.051Z,31.61
2023-05-02T04:48:45.936Z,31.61
2023-05-02T04:49:45.968Z,31.60
2023-05-02T04:50:46.009Z,31.59
2023-05-02T04:51:46.061Z,31.58
2023-05-02T04:52:46.085Z,31.60
2023-05-02T04:53:46.134Z,31.57
2023-05-02T04:54:46.170Z,31.59
2023-05-02T04:55:46.209Z,31.60
2023-05-02T04:56:46.226Z,31.58
2023-05-02T04:57:46.270Z,31.59
2023-05-02T04:58:46.304Z,31.60
2023-05-02T04:59:46.342Z,31.60
2023-05-02T05:00:46.375Z,31.58
2023-05-02T05:01:46.502Z,31.57
2023-05-02T05:02:46.541Z,31.59
2023-05-02T05:03:46.566Z,31.58
2023-05-02T05:04:46.518Z,31.58
2023-05-02T05:05:46.653Z,31.59
2023-05-02T05:06:46.686Z,31.58
2023-05-02T05:07:46.629Z,31.59
2023-05-02T05:08:46.662Z,31.57
2023-05-02T05:09:46.715Z,31.59
2023-05-02T05:10:46.751Z,31.57
2023-05-02T05:11:46.789Z,31.59
2023-05-02T05:12:46.818Z,31.56
2023-05-02T05:13:46.948Z,31.58
2023-05-02T05:14:46.914Z,31.59
2023-05-02T05:15:46.997Z,31.59
2023-05-02T05:16:47.143Z,31.55
2023-05-02T05:17:47.121Z,31.58
2023-05-02T05:18:47.085Z,31.58
2023-05-02T05:19:47.129Z,31.57
2023-05-02T05:20:47.158Z,31.75
2023-05-02T05:21:47.199Z,31.68
2023-05-02T05:22:47.319Z,31.72
2023-05-02T05:23:47.260Z,31.88
2023-05-02T05:24:47.298Z,31.85
2023-05-02T05:25:47.330Z,31.91
2023-05-02T05:26:47.354Z,31.95
2023-05-02T05:27:47.388Z,32.02
2023-05-02T05:28:47.420Z,32.10
2023-05-02T05:29:47.454Z,32.16
2023-05-02T05:30:47.472Z,32.25
2023-05-02T05:31:47.507Z,32.33
2023-05-02T05:32:47.581Z,32.31
2023-05-02T05:33:47.676Z,32.38
2023-05-02T05:34:50.201Z,32.39
2023-05-02T05:35:47.917Z,32.43
2023-05-02T05:36:47.858Z,32.45
2023-05-02T05:37:47.899Z,32.44
2023-05-02T05:38:47.921Z,32.46
2023-05-02T05:39:47.951Z,32.42
2023-05-02T05:40:47.969Z,32.42
2023-05-02T05:41:47.993Z,32.46
2023-05-02T05:42:48.021Z,32.44
2023-05-02T05:43:48.060Z,32.45
2023-05-02T05:44:48.104Z,32.47
2023-05-02T05:45:48.734Z,32.48
2023-05-02T05:46:48.178Z,32.49
2023-05-02T05:47:48.206Z,32.49
2023-05-02T05:48:48.198Z,32.51
2023-05-02T05:49:48.258Z,32.51
2023-05-02T05:50:49.308Z,32.52
2023-05-02T05:51:48.307Z,32.49
2023-05-02T05:52:48.334Z,32.52
2023-05-02T05:53:48.368Z,32.56
2023-05-02T05:54:48.543Z,32.51
2023-05-02T05:55:48.453Z,32.53
2023-05-02T05:56:48.574Z,32.51
2023-05-02T05:57:48.520Z,32.52
2023-05-02T05:58:49.214Z,32.57
2023-05-02T05:59:48.602Z,32.56
2023-05-02T06:00:48.676Z,32.51
2023-05-02T06:01:48.660Z,32.55
2023-05-02T06:02:48.858Z,32.53
2023-05-02T06:03:48.912Z,32.51
2023-05-02T06:04:48.811Z,32.53
2023-05-02T06:05:48.781Z,32.51
2023-05-02T06:06:48.860Z,32.51
2023-05-02T06:07:48.868Z,32.50
2023-05-02T06:08:48.906Z,32.52
2023-05-02T06:09:48.940Z,32.48
2023-05-02T06:10:49.001Z,32.49
2023-05-02T06:11:49.015Z,32.50
2023-05-02T06:12:49.458Z,32.51
2023-05-02T06:13:49.097Z,32.50
2023-05-02T06:14:49.140Z,32.50
2023-05-02T06:15:49.184Z,32.50
2023-05-02T06:16:49.212Z,32.50
2023-05-02T06:17:49.272Z,32.48
2023-05-02T06:18:49.285Z,32.47
2023-05-02T06:19:49.730Z,32.48
2023-05-02T06:20:49.362Z,32.47
2023-05-02T06:21:49.397Z,32.50
2023-05-02T06:22:49.453Z,32.47
2023-05-02T06:23:49.476Z,32.49
2023-05-02T06:24:49.513Z,32.48
2023-05-02T06:25:50.226Z,32.46
2023-05-02T06:26:49.590Z,32.46
2023-05-02T06:27:49.695Z,32.46
2023-05-02T06:28:49.682Z,32.44
2023-05-02T06:29:49.728Z,32.48
2023-05-02T06:30:49.763Z,32.44
2023-05-02T06:31:49.821Z,32.47
2023-05-02T06:32:50.083Z,32.45
2023-05-02T06:33:49.884Z,32.47
2023-05-02T06:34:49.892Z,32.48
2023-05-02T06:35:50.744Z,32.47
2023-05-02T06:36:49.888Z,32.47
2023-05-02T06:37:49.861Z,32.45
2023-05-02T06:38:49.843Z,32.44
2023-05-02T06:39:49.841Z,32.43
2023-05-02T06:40:49.834Z,32.42
2023-05-02T06:41:49.828Z,32.40
2023-05-02T06:42:49.825Z,32.43
2023-05-02T06:43:49.814Z,32.41
2023-05-02T06:44:49.847Z,32.39
2023-05-02T06:45:49.886Z,32.39
2023-05-02T06:46:49.992Z,32.37
2023-05-02T06:47:49.999Z,32.38
2023-05-02T06:48:50.649Z,32.35
2023-05-02T06:49:50.100Z,32.37
2023-05-02T06:50:50.076Z,32.35
2023-05-02T06:51:50.110Z,32.37
2023-05-02T06:52:50.151Z,32.34
2023-05-02T06:53:50.206Z,32.36
2023-05-02T06:54:50.218Z,32.37
2023-05-02T06:55:51.243Z,32.35
2023-05-02T06:56:50.298Z,32.36
2023-05-02T06:57:50.332Z,32.34
2023-05-02T06:58:50.445Z,32.30
2023-05-02T06:59:50.394Z,32.31
2023-05-02T07:00:50.503Z,32.29
2023-05-02T07:01:50.471Z,32.28
2023-05-02T07:02:50.534Z,32.30
2023-05-02T07:03:50.603Z,32.26
2023-05-02T07:04:50.586Z,32.24
2023-05-02T07:05:50.618Z,32.24
2023-05-02T07:06:50.763Z,32.24
2023-05-02T07:07:50.712Z,32.22
2023-05-02T07:08:50.719Z,32.20
2023-05-02T07:09:50.753Z,32.19
2023-05-02T07:10:50.782Z,32.18
2023-05-02T07:11:51.656Z,32.17
2023-05-02T07:12:50.845Z,32.16
2023-05-02T07:13:50.874Z,32.16
2023-05-02T07:14:50.896Z,32.13
2023-05-02T07:15:50.925Z,32.12
2023-05-02T07:16:51.057Z,32.13
2023-05-02T07:17:51.069Z,32.11
2023-05-02T07:18:51.018Z,32.09
2023-05-02T07:19:51.045Z,33.08
2023-05-02T07:20:51.058Z,33.70
2023-05-02T07:21:51.074Z,33.71
2023-05-02T07:22:51.087Z,34.46
2023-05-02T07:23:51.113Z,34.94
2023-05-02T07:24:51.124Z,35.48
2023-05-02T07:25:51.218Z,35.91
2023-05-02T07:26:51.139Z,36.24
2023-05-02T07:27:51.168Z,36.54
2023-05-02T07:28:52.205Z,36.85
2023-05-02T07:29:51.741Z,37.26
2023-05-02T07:30:51.204Z,37.83
2023-05-02T07:31:51.264Z,38.03
2023-05-02T07:32:51.222Z,38.18
2023-05-02T07:33:51.745Z,38.29
2023-05-02T07:34:51.223Z,38.58
2023-05-02T07:35:51.252Z,38.79
2023-05-02T07:36:51.303Z,38.97
2023-05-02T07:37:51.359Z,39.21
2023-05-02T07:38:51.414Z,39.39
2023-05-02T07:39:51.481Z,39.48
2023-05-02T07:40:51.542Z,39.72
2023-05-02T07:41:51.600Z,39.89
2023-05-02T07:42:51.734Z,40.06
2023-05-02T07:43:51.690Z,40.25
2023-05-02T07:44:51.756Z,40.49
2023-05-02T07:45:51.807Z,40.61
2023-05-02T07:46:51.835Z,40.76
2023-05-02T07:47:51.941Z,40.85
2023-05-02T07:48:51.913Z,41.00
2023-05-02T07:49:51.960Z,41.15
2023-05-02T07:50:51.981Z,41.32
2023-05-02T07:51:52.031Z,41.46
2023-05-02T07:52:52.037Z,41.62
2023-05-02T07:53:52.067Z,41.64
2023-05-02T07:54:52.091Z,41.87
2023-05-02T07:55:52.107Z,42.03
2023-05-02T07:56:52.137Z,42.06
2023-05-02T07:57:52.185Z,42.22
2023-05-02T07:58:52.182Z,42.37
2023-05-02T07:59:52.205Z,42.38
2023-05-02T08:00:52.764Z,42.51
2023-05-02T08:01:53.181Z,42.66
2023-05-02T08:02:52.404Z,42.69
2023-05-02T08:03:52.582Z,42.81
2023-05-02T08:04:52.426Z,42.87
2023-05-02T08:05:52.298Z,42.99
2023-05-02T08:06:52.536Z,43.11
2023-05-02T08:07:52.312Z,43.14
2023-05-02T08:08:52.298Z,43.15
2023-05-02T08:09:52.288Z,43.21
2023-05-02T08:10:52.304Z,43.31
2023-05-02T08:11:52.311Z,43.37
2023-05-02T08:12:52.307Z,43.35
2023-05-02T08:13:52.313Z,43.37
2023-05-02T08:14:52.308Z,43.60
2023-05-02T08:15:52.373Z,40.83
2023-05-02T08:16:52.446Z,39.60
2023-05-02T08:17:52.450Z,38.05
2023-05-02T08:18:52.390Z,36.39
2023-05-02T08:19:52.410Z,36.36
2023-05-02T08:20:52.617Z,36.08
2023-05-02T08:21:52.497Z,36.37
2023-05-02T08:22:52.552Z,36.23
2023-05-02T08:23:52.616Z,36.47
2023-05-02T08:24:52.673Z,35.79
2023-05-02T08:25:52.737Z,35.48
2023-05-02T08:26:52.800Z,35.11
2023-05-02T08:27:52.856Z,34.66
2023-05-02T08:28:52.911Z,35.13
2023-05-02T08:29:52.955Z,35.40
2023-05-02T08:30:52.995Z,35.30
2023-05-02T08:31:53.053Z,35.67
2023-05-02T08:32:53.066Z,36.13
2023-05-02T08:33:53.029Z,36.77
2023-05-02T08:34:53.075Z,36.85
2023-05-02T08:35:53.134Z,37.12
2023-05-02T08:36:53.183Z,37.32
2023-05-02T08:37:53.230Z,37.45
2023-05-02T08:38:53.245Z,37.54
2023-05-02T08:39:53.289Z,37.66
2023-05-02T08:40:53.296Z,37.74
2023-05-02T08:41:53.324Z,37.83
2023-05-02T08:42:53.426Z,37.93
2023-05-02T08:43:53.344Z,37.95
2023-05-02T08:44:53.357Z,38.02
2023-05-02T08:45:53.378Z,38.11
2023-05-02T08:46:53.508Z,38.12
2023-05-02T08:47:53.544Z,38.14
2023-05-02T08:48:53.478Z,38.21
2023-05-02T08:49:53.492Z,38.30
2023-05-02T08:50:53.512Z,38.34
2023-05-02T08:51:53.484Z,38.46
2023-05-02T08:52:53.539Z,38.57
2023-05-02T08:53:53.594Z,38.59
2023-05-02T08:54:53.658Z,38.66
2023-05-02T08:55:53.714Z,38.77
2023-05-02T08:56:53.779Z,38.70
2023-05-02T08:57:53.824Z,38.75
2023-05-02T08:58:53.871Z,38.74
2023-05-02T08:59:53.915Z,38.76
2023-05-02T09:00:54.791Z,38.69
2023-05-02T09:01:53.979Z,38.73
2023-05-02T09:02:54.110Z,38.73
2023-05-02T09:03:54.104Z,38.83
2023-05-02T09:04:54.083Z,38.88
2023-05-02T09:05:54.782Z,38.90
2023-05-02T09:06:54.198Z,38.98
2023-05-02T09:07:54.149Z,38.99
2023-05-02T09:08:54.167Z,39.01
2023-05-02T09:09:54.187Z,39.10
2023-05-02T09:10:54.195Z,39.14
2023-05-02T09:11:54.194Z,39.19
2023-05-02T09:12:54.218Z,39.24
2023-05-02T09:13:54.233Z,39.59
2023-05-02T09:14:54.246Z,39.27
2023-05-02T09:15:54.799Z,39.56
2023-05-02T09:16:54.330Z,39.62
2023-05-02T09:17:54.336Z,39.65
2023-05-02T09:18:54.272Z,39.98
2023-05-02T09:19:54.271Z,39.80
2023-05-02T09:20:55.261Z,40.07
2023-05-02T09:21:54.263Z,39.91
2023-05-02T09:22:54.300Z,39.94
2023-05-02T09:23:54.285Z,40.07
2023-05-02T09:24:54.244Z,40.09
2023-05-02T09:25:54.224Z,40.10
2023-05-02T09:26:54.222Z,40.22
2023-05-02T09:27:54.280Z,40.36
2023-05-02T09:28:54.221Z,40.55
2023-05-02T09:29:54.201Z,40.69
2023-05-02T09:30:54.324Z,40.81
2023-05-02T09:31:56.057Z,40.91
2023-05-02T09:32:54.313Z,40.96
2023-05-02T09:33:54.354Z,41.11
2023-05-02T09:34:54.415Z,41.16
2023-05-02T09:35:54.472Z,41.26
2023-05-02T09:36:54.851Z,41.36
2023-05-02T09:37:54.667Z,41.45
2023-05-02T09:38:54.648Z,41.54
2023-05-02T09:39:54.704Z,41.62
2023-05-02T09:40:55.301Z,41.74
2023-05-02T09:41:55.022Z,41.72
2023-05-02T09:42:54.859Z,41.93
2023-05-02T09:43:54.905Z,42.05
2023-05-02T09:44:54.972Z,42.11
2023-05-02T09:45:55.052Z,42.23
2023-05-02T09:46:55.069Z,42.31
2023-05-02T09:47:55.287Z,42.43
2023-05-02T09:48:55.138Z,42.59
2023-05-02T09:49:55.176Z,42.66
2023-05-02T09:50:55.223Z,42.74
2023-05-02T09:51:55.261Z,42.75
2023-05-02T09:52:55.316Z,42.95
2023-05-02T09:53:55.357Z,42.84
2023-05-02T09:54:55.402Z,42.68
2023-05-02T09:55:55.451Z,42.36
2023-05-02T09:56:55.506Z,42.00
2023-05-02T09:57:55.573Z,42.00
2023-05-02T09:58:55.627Z,41.62
2023-05-02T09:59:55.673Z,41.46
2023-05-02T10:00:55.708Z,41.24
2023-05-02T10:01:55.741Z,41.13
2023-05-02T10:02:55.782Z,41.03
2023-05-02T10:03:55.840Z,40.97
2023-05-02T10:04:55.818Z,41.05
2023-05-02T10:05:55.920Z,41.09
2023-05-02T10:06:56.829Z,41.16
2023-05-02T10:07:56.008Z,41.24
2023-05-02T10:08:56.064Z,41.29
2023-05-02T10:09:56.130Z,41.40
2023-05-02T10:10:56.157Z,41.44
2023-05-02T10:11:56.217Z,41.47
2023-05-02T10:12:56.240Z,41.50
2023-05-02T10:13:56.290Z,41.37
2023-05-02T10:14:57.442Z,41.29
2023-05-02T10:15:56.426Z,41.25
2023-05-02T10:16:56.412Z,41.16
2023-05-02T10:17:56.501Z,41.00
2023-05-02T10:18:56.516Z,40.85
2023-05-02T10:19:56.554Z,40.68
2023-05-02T10:20:56.703Z,40.59
2023-05-02T10:21:56.648Z,40.57
2023-05-02T10:22:56.704Z,40.46
2023-05-02T10:23:56.745Z,40.37
2023-05-02T10:24:57.362Z,40.28
2023-05-02T10:25:58.180Z,40.22
2023-05-02T10:26:57.028Z,40.17
2023-05-02T10:27:57.075Z,40.09
2023-05-02T10:28:57.115Z,40.03
2023-05-02T10:29:57.224Z,40.03
2023-05-02T10:30:57.223Z,39.96
2023-05-02T10:31:57.321Z,39.96
2023-05-02T10:32:57.325Z,39.96
2023-05-02T10:33:57.380Z,39.95
2023-05-02T10:34:57.460Z,39.88
2023-05-02T10:35:58.324Z,39.91
2023-05-02T10:36:57.538Z,39.86
2023-05-02T10:37:58.338Z,39.81
2023-05-02T10:38:57.652Z,39.87
2023-05-02T10:39:57.723Z,39.80
2023-05-02T10:40:57.781Z,39.80
2023-05-02T10:41:57.839Z,39.75
2023-05-02T10:42:57.902Z,39.70
2023-05-02T10:43:57.957Z,39.75
2023-05-02T10:44:58.344Z,39.68
2023-05-02T10:45:58.078Z,39.62
2023-05-02T10:46:58.267Z,39.61
2023-05-02T10:47:58.303Z,39.58
2023-05-02T10:48:58.252Z,39.56
2023-05-02T10:49:58.312Z,39.46
2023-05-02T10:50:58.381Z,39.46
2023-05-02T10:51:58.423Z,39.38
2023-05-02T10:52:58.493Z,39.35
2023-05-02T10:53:58.548Z,39.35
2023-05-02T10:54:58.685Z,39.36
2023-05-02T10:55:58.686Z,39.34
2023-05-02T10:56:58.749Z,39.33
2023-05-02T10:57:58.861Z,39.32
2023-05-02T10:58:58.847Z,39.33
2023-05-02T10:59:59.340Z,39.32
2023-05-02T11:00:58.987Z,39.27
2023-05-02T11:01:59.054Z,39.22
2023-05-02T11:02:59.274Z,39.22
2023-05-02T11:03:59.154Z,39.21
2023-05-02T11:04:59.372Z,39.10
2023-05-02T11:05:59.283Z,39.11
2023-05-02T11:06:59.367Z,39.09
2023-05-02T11:07:59.388Z,39.14
2023-05-02T11:08:59.438Z,39.15
2023-05-02T11:09:59.504Z,39.08
2023-05-02T11:10:59.588Z,39.10
2023-05-02T11:11:59.612Z,39.08
2023-05-02T11:12:59.678Z,39.08
2023-05-02T11:13:59.733Z,39.06
2023-05-02T11:15:00.000Z,39.03
2023-05-02T11:15:59.875Z,39.05
2023-05-02T11:17:00.029Z,39.02
2023-05-02T11:18:00.035Z,38.97
2023-05-02T11:19:00.066Z,38.96
2023-05-02T11:20:00.739Z,38.92
2023-05-02T11:21:00.136Z,38.93
2023-05-02T11:22:00.192Z,38.90
2023-05-02T11:23:00.196Z,38.92
2023-05-02T11:24:00.232Z,38.87
2023-05-02T11:25:00.546Z,38.86
2023-05-02T11:26:00.305Z,38.87
2023-05-02T11:27:00.328Z,38.79
2023-05-02T11:28:00.368Z,38.83
2023-05-02T11:29:00.405Z,38.85
2023-05-02T11:30:00.459Z,38.86
2023-05-02T11:31:00.444Z,38.94
2023-05-02T11:32:00.489Z,38.99
2023-05-02T11:33:00.535Z,38.96
2023-05-02T11:34:01.359Z,39.01
2023-05-02T11:35:00.717Z,38.99
2023-05-02T11:36:00.530Z,39.06
2023-05-02T11:37:00.535Z,39.04
2023-05-02T11:38:00.526Z,39.02
2023-05-02T11:39:00.537Z,39.05
2023-05-02T11:40:00.545Z,39.04
2023-05-02T11:41:00.565Z,39.08
2023-05-02T11:42:00.570Z,39.07
2023-05-02T11:43:01.252Z,39.09
2023-05-02T11:44:01.066Z,39.04
2023-05-02T11:45:01.123Z,39.02
2023-05-02T11:46:00.775Z,39.05
2023-05-02T11:47:00.690Z,39.03
2023-05-02T11:48:00.655Z,39.05
2023-05-02T11:49:00.662Z,38.99
2023-05-02T11:50:00.736Z,39.07
2023-05-02T11:51:00.710Z,38.80
2023-05-02T11:52:00.649Z,39.10
2023-05-02T11:53:00.683Z,37.75
2023-05-02T11:54:00.723Z,38.21
2023-05-02T11:55:00.887Z,37.56
2023-05-02T11:56:01.429Z,37.40
2023-05-02T11:57:00.797Z,38.48
2023-05-02T11:58:00.824Z,38.72
2023-05-02T11:59:00.860Z,38.80
2023-05-02T12:00:01.214Z,38.83
2023-05-02T12:01:00.924Z,38.84
2023-05-02T12:02:00.953Z,38.98
2023-05-02T12:03:01.067Z,38.88
2023-05-02T12:04:01.154Z,38.90
2023-05-02T12:05:01.288Z,38.88
2023-05-02T12:06:01.178Z,38.90
2023-05-02T12:07:01.171Z,38.85
2023-05-02T12:08:01.123Z,38.79
2023-05-02T12:09:01.151Z,38.75
2023-05-02T12:10:01.170Z,38.71
2023-05-02T12:11:01.198Z,38.67
2023-05-02T12:12:01.216Z,38.63
2023-05-02T12:13:01.259Z,38.62
2023-05-02T12:14:01.268Z,38.58
2023-05-02T12:15:01.561Z,38.65
2023-05-02T12:16:01.346Z,38.60
2023-05-02T12:17:01.340Z,38.60
2023-05-02T12:18:01.385Z,38.62
2023-05-02T12:19:01.468Z,38.64
2023-05-02T12:20:01.417Z,38.58
2023-05-02T12:21:01.414Z,38.61
2023-05-02T12:22:01.437Z,38.57
2023-05-02T12:23:01.455Z,38.47
2023-05-02T12:24:01.484Z,38.46
2023-05-02T12:25:01.788Z,38.40
2023-05-02T12:26:01.522Z,38.31
2023-05-02T12:27:01.547Z,38.21
2023-05-02T12:28:01.582Z,38.25
2023-05-02T12:29:01.607Z,38.20
2023-05-02T12:30:02.956Z,38.23
2023-05-02T12:31:01.643Z,38.24
2023-05-02T12:32:01.619Z,38.22
2023-05-02T12:33:01.631Z,38.21
2023-05-02T12:34:01.733Z,38.21
2023-05-02T12:35:01.567Z,38.22
2023-05-02T12:36:01.560Z,38.19
2023-05-02T12:37:01.558Z,38.08
2023-05-02T12:38:01.569Z,38.14
2023-05-02T12:39:01.588Z,38.14
2023-05-02T12:40:01.725Z,38.15
2023-05-02T12:41:01.610Z,38.09
2023-05-02T12:42:01.517Z,38.13
2023-05-02T12:43:01.518Z,38.07
2023-05-02T12:44:01.511Z,38.11
2023-05-02T12:45:01.549Z,38.08
2023-05-02T12:46:01.596Z,38.07
2023-05-02T12:47:01.692Z,38.04
2023-05-02T12:48:01.732Z,38.05
2023-05-02T12:49:01.716Z,38.13
2023-05-02T12:50:01.887Z,38.15
2023-05-02T12:51:01.797Z,38.22
2023-05-02T12:52:01.894Z,38.25
2023-05-02T12:53:01.887Z,38.19